Patterson Municipal Heliport

About
Name: Patterson Municipal Heliport
Identifier:  PTN/KPTN
Local Time:  18. Aug 13:06 CDT
Location
Flights per Day
0 flights
Distance: 419km (260mi)
Punctuality
50% (0 flights per day delayed)
Delay Average: 127 minutes
Current Weather
 32 C (Humidity: 70%)
  7kt (12km/h / 8mph) from 230°
  Broken clouds at 2,400 feet (731 meter)
  16km (10 mi.)
 METAR KPTN 181709Z AUTO 23007KT 200V270 10SM BKN024 32/26 A3001 RMK AO2

Current Flights

Departures
Number Departure To Airline
Arrivals
Number Arrival From Airline

Current Delays

Departures
N/A
Arrivals
N/A

Destinations

Top Destinations
Airport Flights
per week
Seats
per week
  Lake Charles (LCH) 1 - 0 0
  Destin (DSI) 0 - 0 0
  Houston (IWS) 0 - 0 0
  Hattiesburg (PIB) 0 - 0 0
  Sugar Land (SGR) 0 - 0 0
  Arlington (GKY) 0 - 0 0
  Baton Rouge (BTR) 0 - 0 0
  Alexandria (AEX) 0 - 0 0

Airlines & Planes

Top Airlines
Airline Flights
per Day
Seats
per Day
Jet Charter Inc ( Franklin Lakes Nj ) 0 -
Nordwind Airlines 0 -
  Novair 0 -
Gama Aviation 0 -
Top Plane Types
Model Flights Seats
Cessna C56X 0.2/day - 0
Beech E90 King Air 0.1/day - 0
Cirrus SR22 0.1/day - 0
Cessna C82S 0.1/day - 0
Beech B300 Super King Air 350 0.0/day - 0